createdAt,value
2023-05-19T00:00:40.193Z,4.20
2023-05-19T00:05:46.491Z,3.45
2023-05-19T00:10:48.870Z,3.88
2023-05-19T00:15:51.398Z,3.13
2023-05-19T00:20:53.480Z,2.90
2023-05-19T00:30:57.394Z,3.55
2023-05-19T00:41:02.658Z,3.15
2023-05-19T00:46:04.817Z,3.70
2023-05-19T00:51:07.403Z,3.85
2023-05-19T00:56:09.457Z,3.70
2023-05-19T01:06:15.331Z,3.33
2023-05-19T01:11:17.611Z,3.78
2023-05-19T01:16:27.463Z,3.83
2023-05-19T01:21:55.802Z,3.97
2023-05-19T01:27:38.924Z,3.42
2023-05-19T01:32:42.439Z,3.42
2023-05-19T01:37:45.682Z,4.15
2023-05-19T01:42:48.195Z,3.13
2023-05-19T01:47:54.175Z,3.30
2023-05-19T01:52:56.760Z,3.13
2023-05-19T01:58:20.123Z,2.92
2023-05-19T02:03:28.044Z,2.58
2023-05-19T02:08:44.669Z,3.10
2023-05-19T02:13:51.582Z,2.80
2023-05-19T02:18:54.469Z,2.53
2023-05-19T02:23:56.571Z,2.22
2023-05-19T02:34:00.549Z,2.85
2023-05-19T02:44:05.951Z,1.95
2023-05-19T02:49:07.976Z,1.70
2023-05-19T02:54:10.023Z,2.35
2023-05-19T02:59:12.026Z,2.03
2023-05-19T03:04:14.321Z,1.90
2023-05-19T03:09:16.559Z,1.98
2023-05-19T03:19:21.212Z,2.10
2023-05-19T03:24:23.464Z,2.63
2023-05-19T03:34:27.475Z,2.85
2023-05-19T03:39:29.559Z,2.83
2023-05-19T03:44:31.590Z,2.40
2023-05-19T03:49:33.643Z,1.60
2023-05-19T03:54:36.367Z,2.15
2023-05-19T03:59:38.643Z,2.10
2023-05-19T04:04:40.704Z,1.45
2023-05-19T04:09:43.205Z,1.83
2023-05-19T04:14:45.275Z,1.85
2023-05-19T04:24:50.711Z,1.83
2023-05-19T04:29:53.117Z,1.55
2023-05-19T04:34:55.297Z,1.65
2023-05-19T04:44:59.646Z,1.65
2023-05-19T04:55:04.367Z,2.03
2023-05-19T05:00:09.367Z,1.90
2023-05-19T05:05:11.413Z,2.38
2023-05-19T05:15:16.216Z,1.60
2023-05-19T05:20:19.922Z,1.85
2023-05-19T05:25:22.351Z,1.65
2023-05-19T05:30:24.404Z,1.67
2023-05-19T05:40:28.402Z,1.27
2023-05-19T05:50:33.606Z,2.00
2023-05-19T05:55:36.123Z,2.20
2023-05-19T06:00:38.985Z,1.65
2023-05-19T06:05:47.723Z,2.03
2023-05-19T06:10:50.935Z,1.80
2023-05-19T06:15:53.291Z,1.90
2023-05-19T06:20:55.812Z,2.10
2023-05-19T06:25:58.065Z,2.13
2023-05-19T06:31:00.512Z,2.30
2023-05-19T06:36:02.760Z,2.65
2023-05-19T06:41:05.722Z,1.85
2023-05-19T06:46:08.417Z,1.83
2023-05-19T06:51:15.244Z,2.05
2023-05-19T06:56:19.146Z,1.55
2023-05-19T07:01:21.642Z,2.22
2023-05-19T07:06:24.145Z,1.70
2023-05-19T07:11:27.199Z,1.50
2023-05-19T07:16:38.674Z,1.30
2023-05-19T07:21:42.743Z,1.50
2023-05-19T07:26:44.977Z,1.05
2023-05-19T07:31:47.108Z,1.45
2023-05-19T07:36:49.297Z,1.30
2023-05-19T07:41:54.663Z,1.02
2023-05-19T07:46:56.705Z,1.02
2023-05-19T07:51:58.839Z,1.27
2023-05-19T07:57:01.300Z,1.13
2023-05-19T08:02:03.735Z,1.05
2023-05-19T08:07:05.911Z,0.88
2023-05-19T08:12:08.278Z,0.88
2023-05-19T08:17:10.561Z,1.30
2023-05-19T08:22:12.798Z,1.23
2023-05-19T08:27:14.818Z,1.13
2023-05-19T08:32:17.793Z,1.13
2023-05-19T08:37:19.842Z,1.27
2023-05-19T08:42:21.919Z,1.35
2023-05-19T08:47:24.207Z,1.05
2023-05-19T08:52:37.015Z,1.63
2023-05-19T08:57:39.885Z,1.15
2023-05-19T09:02:50.628Z,0.93
2023-05-19T09:08:05.255Z,1.35
2023-05-19T09:13:07.875Z,1.50
2023-05-19T09:18:13.305Z,1.92
2023-05-19T09:23:16.955Z,1.55
2023-05-19T09:28:25.995Z,1.55
2023-05-19T09:33:28.893Z,1.75
2023-05-19T09:38:31.058Z,1.88
2023-05-19T09:43:34.613Z,1.63
2023-05-19T09:48:37.727Z,1.70
2023-05-19T09:53:40.094Z,1.50
2023-05-19T09:58:43.004Z,1.83
2023-05-19T10:03:45.561Z,1.85
2023-05-19T10:08:48.448Z,1.48
2023-05-19T10:13:51.867Z,1.83
2023-05-19T10:18:57.470Z,1.63
2023-05-19T10:23:59.657Z,1.60
2023-05-19T10:29:03.711Z,2.00
2023-05-19T10:34:50.651Z,1.50
2023-05-19T10:39:53.650Z,2.15
2023-05-19T10:45:10.501Z,4.60
2023-05-19T10:50:12.811Z,2.08
2023-05-19T10:55:18.339Z,2.22
2023-05-19T11:00:32.285Z,1.60
2023-05-19T11:05:37.424Z,2.50
2023-05-19T11:10:39.967Z,2.50
2023-05-19T11:15:43.417Z,2.90
2023-05-19T11:20:58.664Z,2.17
2023-05-19T11:26:03.055Z,2.05
2023-05-19T11:31:08.395Z,1.90
2023-05-19T11:36:11.417Z,2.30
2023-05-19T11:41:18.231Z,2.13
2023-05-19T11:46:21.387Z,2.47
2023-05-19T11:51:23.761Z,2.15
2023-05-19T11:56:26.773Z,2.50
2023-05-19T12:01:28.892Z,2.97
2023-05-19T12:06:31.618Z,3.00
2023-05-19T12:11:35.312Z,3.50
2023-05-19T12:16:37.467Z,2.78
2023-05-19T12:21:39.909Z,2.67
2023-05-19T12:26:42.116Z,3.88
2023-05-19T12:31:47.168Z,2.88
2023-05-19T12:36:50.114Z,3.15
2023-05-19T12:41:52.349Z,3.10
2023-05-19T12:46:54.682Z,3.55
2023-05-19T12:51:56.935Z,3.65
2023-05-19T12:57:00.494Z,3.38
2023-05-19T13:02:02.857Z,3.47
2023-05-19T13:07:06.112Z,3.40
2023-05-19T13:12:08.458Z,4.13
2023-05-19T13:17:10.595Z,3.03
2023-05-19T13:22:12.828Z,3.15
2023-05-19T13:27:16.115Z,4.00
2023-05-19T13:32:18.383Z,2.92
2023-05-19T13:37:20.997Z,3.35
2023-05-19T13:42:23.607Z,3.72
2023-05-19T13:47:26.666Z,3.70
2023-05-19T13:52:30.486Z,3.42
2023-05-19T13:57:33.432Z,3.20
2023-05-19T14:02:36.581Z,3.20
2023-05-19T14:07:39.173Z,3.70
2023-05-19T14:13:04.754Z,4.85
2023-05-19T14:18:05.044Z,3.67
2023-05-19T14:23:08.945Z,4.28
2023-05-19T14:28:11.582Z,3.72
2023-05-19T14:33:16.167Z,4.05
2023-05-19T14:38:23.075Z,4.63
2023-05-19T14:43:25.519Z,3.97
2023-05-19T14:48:32.055Z,4.05
2023-05-19T14:53:34.219Z,4.30
2023-05-19T14:58:37.416Z,4.55
2023-05-19T15:03:39.738Z,4.18
2023-05-19T15:08:41.994Z,4.63
2023-05-19T15:13:44.411Z,4.70
2023-05-19T15:18:46.799Z,4.28
2023-05-19T15:23:48.935Z,3.78
2023-05-19T15:28:53.203Z,4.70
2023-05-19T15:33:55.450Z,4.15
2023-05-19T15:38:57.649Z,4.32
2023-05-19T15:44:02.889Z,4.80
2023-05-19T15:49:07.334Z,4.75
2023-05-19T15:54:11.175Z,4.55
2023-05-19T15:59:36.649Z,4.25
2023-05-19T16:04:45.782Z,4.03
2023-05-19T16:09:48.412Z,3.97
2023-05-19T16:14:51.314Z,4.43
2023-05-19T16:19:53.520Z,4.68
2023-05-19T16:24:55.840Z,4.30
2023-05-19T16:29:58.054Z,3.80
2023-05-19T16:35:00.368Z,5.20
2023-05-19T16:40:02.549Z,4.32
2023-05-19T16:45:05.872Z,5.00
2023-05-19T16:50:08.860Z,4.65
2023-05-19T16:55:13.355Z,4.55
2023-05-19T17:00:15.975Z,4.72
2023-05-19T17:05:18.220Z,4.68
2023-05-19T17:10:21.056Z,4.60
2023-05-19T17:15:23.447Z,4.28
2023-05-19T17:20:25.673Z,4.93
2023-05-19T17:25:27.878Z,4.43
2023-05-19T17:30:30.138Z,4.53
2023-05-19T17:35:34.279Z,5.53
2023-05-19T17:40:38.593Z,4.25
2023-05-19T17:45:42.052Z,4.15
2023-05-19T17:50:48.321Z,4.88
2023-05-19T17:56:01.971Z,4.50
2023-05-19T18:01:04.900Z,4.50
2023-05-19T18:06:07.936Z,4.50
2023-05-19T18:11:13.813Z,4.70
2023-05-19T18:16:16.281Z,4.53
2023-05-19T18:21:20.899Z,5.13
2023-05-19T18:26:23.509Z,5.40
2023-05-19T18:31:26.347Z,5.10
2023-05-19T18:36:41.426Z,4.80
2023-05-19T18:41:44.913Z,5.20
2023-05-19T18:46:47.231Z,5.63
2023-05-19T18:51:50.397Z,5.72
2023-05-19T18:56:53.195Z,6.10
2023-05-19T19:01:56.163Z,4.85
2023-05-19T19:06:58.601Z,5.20
2023-05-19T19:12:01.200Z,5.57
2023-05-19T19:17:03.420Z,4.60
2023-05-19T19:22:05.672Z,5.30
2023-05-19T19:27:07.775Z,5.10
2023-05-19T19:32:17.401Z,4.72
2023-05-19T19:37:23.059Z,5.93
2023-05-19T19:42:25.875Z,4.65
2023-05-19T19:47:27.856Z,4.30
2023-05-19T19:52:30.303Z,4.32
2023-05-19T19:57:34.679Z,4.72
2023-05-19T20:02:45.529Z,5.18
2023-05-19T20:07:57.855Z,4.20
2023-05-19T20:13:00.043Z,4.20
2023-05-19T20:18:03.701Z,4.97
2023-05-19T20:23:06.375Z,5.35
2023-05-19T20:28:08.627Z,4.63
2023-05-19T20:33:12.407Z,4.95
2023-05-19T20:38:15.008Z,4.60
2023-05-19T20:43:17.026Z,5.10
2023-05-19T20:48:19.143Z,4.95
2023-05-19T20:53:22.134Z,6.05
2023-05-19T20:58:26.943Z,5.45
2023-05-19T21:03:30.656Z,5.05
2023-05-19T21:08:33.061Z,5.05
2023-05-19T21:13:39.386Z,5.93
2023-05-19T21:18:42.136Z,5.53
2023-05-19T21:23:44.053Z,5.20
2023-05-19T21:33:47.859Z,4.60
2023-05-19T21:38:49.778Z,5.13
2023-05-19T21:48:53.541Z,5.57
2023-05-19T21:53:55.883Z,7.13
2023-05-19T21:58:57.870Z,6.75
2023-05-19T22:09:02.776Z,6.32
2023-05-19T22:14:04.847Z,5.90
2023-05-19T22:19:06.937Z,6.82
2023-05-19T22:24:09.046Z,7.68
2023-05-19T22:29:15.292Z,6.85
2023-05-19T22:34:17.596Z,7.50
2023-05-19T22:39:19.580Z,8.20
2023-05-19T22:44:21.760Z,7.60
2023-05-19T22:49:23.883Z,7.85
2023-05-19T22:54:25.805Z,8.23
2023-05-19T22:59:27.993Z,8.10
2023-05-19T23:04:29.994Z,9.43
2023-05-19T23:09:32.024Z,7.97
2023-05-19T23:19:37.163Z,8.75
2023-05-19T23:24:39.056Z,9.32
2023-05-19T23:34:42.883Z,8.20
2023-05-19T23:39:54.755Z,7.78
2023-05-19T23:44:56.615Z,8.18
2023-05-19T23:55:00.220Z,7.95
